Mississippi River (Missouri), New Madrid (07024175)

StateMissouriLatestUnknown (279000 cfs)
RiverMississippi RiverRatingObservedEstimated
Updated2020-09-23 1:00 (1 hour ago)Flood - The river is flooding. Obstacles can be treacherous or deadly. The river should be avoided at this stage for casual trips and definitely for the inexperienced. Trips should be attempted only with protective gear and equipment.Flood(none)(none)
Discharge279000 cfs (median: 438000 cfs)High - The river is high and potentially dangerous, especially for the young and / or inexperienced. Normal stream obstacles are sometimes difficult to navigate. Extended distances can be attempted, but canoe travel may not be advisable.High(none)(none)
Height6.83 feetGood - Conditions are ideal for a canoe or kayak. Boats typically will drag on fewer than one-quarter of riffles, if at all, and portages are unnecessary or rare. Normal float lengths can be attempted without a problem.Good(none)(none)
TrendFalling (falling over 24 hours)Low - River is low but can still be floated. Some riffles are okay but most come with significant dragging and might need a portage. Float lengths should be reduced to accommodate low flow, dragging, and portages.Low(none)(none)
USGSExternal icon USGS Site (External icon Google Maps)Poor - River is too low to float comfortably. Most or all riffles will drag or must be portaged and some obstacles (such as slick shelf rock) cause undue problems. Avoid the river at this stage for casual paddling trips.Poor(none)(none)

Trending Data

Plot Image

Trips for Mississippi River (Missouri), New Madrid (07024175)

DateStartEndDistanceConditionDischargeHeightFishingDetails

A total of 0 rows are displayed.

Condition Descriptions

Fishing Conditions

Fish Species

Notes

Classic Trip List

The classic River Trips application is still available for use. It is updated with the new system using a data retrofit. It is no longer maintained. The original River Trips application is no longer updated (as of 1 Dec 2016) but can be checked for errors or for the condition of the data before it was converted to the new system.

Gauge Data Table

ObservationHeightDischargeMaximum
Discharge
Minimum
Discharge
Mean
Discharge
P05P10P20P25P50
(Median)
P75P80P90P95
2020-09-23 01:00 6.83 279000 721000 (2018) 198000 (2017) 449000 198000 251000 438000 657000 721000
2020-09-23 00:00 6.91 280000 721000 (2018) 198000 (2017) 449000 198000 251000 438000 657000 721000
2020-09-22 23:00 7.00 282000 747000 (2018) 214000 (2017) 461000 214000 263000 441000 679000 747000
2020-09-22 22:00 7.09 283000 747000 (2018) 214000 (2017) 461000 214000 263000 441000 679000 747000
2020-09-22 21:00 7.19 285000 747000 (2018) 214000 (2017) 461000 214000 263000 441000 679000 747000
2020-09-22 20:00 7.28 287000 747000 (2018) 214000 (2017) 461000 214000 263000 441000 679000 747000
2020-09-22 19:00 7.37 289000 747000 (2018) 214000 (2017) 461000 214000 263000 441000 679000 747000
2020-09-22 18:00 7.47 291000 747000 (2018) 214000 (2017) 461000 214000 263000 441000 679000 747000
2020-09-22 17:00 7.54 292000 747000 (2018) 214000 (2017) 461000 214000 263000 441000 679000 747000
2020-09-22 16:00 7.59 293000 747000 (2018) 214000 (2017) 461000 214000 263000 441000 679000 747000
2020-09-22 15:00 7.65 294000 747000 (2018) 214000 (2017) 461000 214000 263000 441000 679000 747000
2020-09-22 14:00 7.70 295000 747000 (2018) 214000 (2017) 461000 214000 263000 441000 679000 747000
2020-09-22 13:00 7.63 294000 747000 (2018) 214000 (2017) 461000 214000 263000 441000 679000 747000
2020-09-22 12:00 7.75 296000 747000 (2018) 214000 (2017) 461000 214000 263000 441000 679000 747000
2020-09-22 11:00 7.73 296000 747000 (2018) 214000 (2017) 461000 214000 263000 441000 679000 747000
2020-09-22 10:00 7.82 297000 747000 (2018) 214000 (2017) 461000 214000 263000 441000 679000 747000
2020-09-22 09:00 7.81 297000 747000 (2018) 214000 (2017) 461000 214000 263000 441000 679000 747000
2020-09-22 08:00 7.89 299000 747000 (2018) 214000 (2017) 461000 214000 263000 441000 679000 747000
2020-09-22 07:00 7.97 300000 747000 (2018) 214000 (2017) 461000 214000 263000 441000 679000 747000
2020-09-22 06:00 8.04 301000 747000 (2018) 214000 (2017) 461000 214000 263000 441000 679000 747000
2020-09-22 05:00 8.05 302000 747000 (2018) 214000 (2017) 461000 214000 263000 441000 679000 747000
2020-09-22 04:00 8.02 301000 747000 (2018) 214000 (2017) 461000 214000 263000 441000 679000 747000
2020-09-22 03:00 8.20 305000 747000 (2018) 214000 (2017) 461000 214000 263000 441000 679000 747000
2020-09-22 02:00 8.25 306000 747000 (2018) 214000 (2017) 461000 214000 263000 441000 679000 747000
2020-09-22 01:00 8.21 305000 747000 (2018) 214000 (2017) 461000 214000 263000 441000 679000 747000
2020-09-22 00:00 8.37 308000 747000 (2018) 214000 (2017) 461000 214000 263000 441000 679000 747000
2020-09-21 23:00 8.35 307000 794000 (2018) 216000 (2017) 477000 216000 265000 449000 717000 794000
2020-09-21 22:00 8.38 308000 794000 (2018) 216000 (2017) 477000 216000 265000 449000 717000 794000
2020-09-21 21:00 8.43 309000 794000 (2018) 216000 (2017) 477000 216000 265000 449000 717000 794000
2020-09-21 20:00 8.50 310000 794000 (2018) 216000 (2017) 477000 216000 265000 449000 717000 794000
2020-09-21 19:00 8.54 311000 794000 (2018) 216000 (2017) 477000 216000 265000 449000 717000 794000
2020-09-21 18:00 8.52 311000 794000 (2018) 216000 (2017) 477000 216000 265000 449000 717000 794000
2020-09-21 17:00 8.46 310000 794000 (2018) 216000 (2017) 477000 216000 265000 449000 717000 794000
2020-09-21 16:00 8.46 310000 794000 (2018) 216000 (2017) 477000 216000 265000 449000 717000 794000
2020-09-21 15:00 8.48 310000 794000 (2018) 216000 (2017) 477000 216000 265000 449000 717000 794000
2020-09-21 14:00 8.58 312000 794000 (2018) 216000 (2017) 477000 216000 265000 449000 717000 794000
2020-09-21 13:00 8.54 311000 794000 (2018) 216000 (2017) 477000 216000 265000 449000 717000 794000
2020-09-21 12:00 8.56 312000 794000 (2018) 216000 (2017) 477000 216000 265000 449000 717000 794000
2020-09-21 11:00 8.35 307000 794000 (2018) 216000 (2017) 477000 216000 265000 449000 717000 794000
2020-09-21 10:00 8.65 313000 794000 (2018) 216000 (2017) 477000 216000 265000 449000 717000 794000
2020-09-21 09:00 8.71 315000 794000 (2018) 216000 (2017) 477000 216000 265000 449000 717000 794000
2020-09-21 08:00 8.77 316000 794000 (2018) 216000 (2017) 477000 216000 265000 449000 717000 794000
2020-09-21 07:00 8.85 317000 794000 (2018) 216000 (2017) 477000 216000 265000 449000 717000 794000
2020-09-21 06:00 8.72 315000 794000 (2018) 216000 (2017) 477000 216000 265000 449000 717000 794000
2020-09-21 05:00 8.61 313000 794000 (2018) 216000 (2017) 477000 216000 265000 449000 717000 794000
2020-09-21 04:00 8.81 317000 794000 (2018) 216000 (2017) 477000 216000 265000 449000 717000 794000
2020-09-21 03:00 8.79 316000 794000 (2018) 216000 (2017) 477000 216000 265000 449000 717000 794000
2020-09-21 02:00 8.92 319000 794000 (2018) 216000 (2017) 477000 216000 265000 449000 717000 794000
2020-09-21 01:00 8.96 319000 794000 (2018) 216000 (2017) 477000 216000 265000 449000 717000 794000
2020-09-21 00:00 8.95 319000 794000 (2018) 216000 (2017) 477000 216000 265000 449000 717000 794000
2020-09-20 23:00 8.98 320000 853000 (2018) 213000 (2017) 486000 213000 259000 440000 760000 853000
2020-09-20 22:00 9.03 321000 853000 (2018) 213000 (2017) 486000 213000 259000 440000 760000 853000
2020-09-20 21:00 9.02 321000 853000 (2018) 213000 (2017) 486000 213000 259000 440000 760000 853000
2020-09-20 20:00 9.05 321000 853000 (2018) 213000 (2017) 486000 213000 259000 440000 760000 853000
2020-09-20 19:00 9.03 321000 853000 (2018) 213000 (2017) 486000 213000 259000 440000 760000 853000
2020-09-20 18:00 9.04 321000 853000 (2018) 213000 (2017) 486000 213000 259000 440000 760000 853000
2020-09-20 17:00 8.96 319000 853000 (2018) 213000 (2017) 486000 213000 259000 440000 760000 853000
2020-09-20 16:00 8.84 317000 853000 (2018) 213000 (2017) 486000 213000 259000 440000 760000 853000
2020-09-20 15:00 8.88 318000 853000 (2018) 213000 (2017) 486000 213000 259000 440000 760000 853000
2020-09-20 14:00 8.90 318000 853000 (2018) 213000 (2017) 486000 213000 259000 440000 760000 853000
2020-09-20 13:00 8.90 318000 853000 (2018) 213000 (2017) 486000 213000 259000 440000 760000 853000
2020-09-20 12:00 8.89 318000 853000 (2018) 213000 (2017) 486000 213000 259000 440000 760000 853000
2020-09-20 11:00 8.67 314000 853000 (2018) 213000 (2017) 486000 213000 259000 440000 760000 853000
2020-09-20 10:00 8.84 317000 853000 (2018) 213000 (2017) 486000 213000 259000 440000 760000 853000
2020-09-20 09:00 8.79 316000 853000 (2018) 213000 (2017) 486000 213000 259000 440000 760000 853000
2020-09-20 08:00 8.94 319000 853000 (2018) 213000 (2017) 486000 213000 259000 440000 760000 853000
2020-09-20 07:00 9.01 320000 853000 (2018) 213000 (2017) 486000 213000 259000 440000 760000 853000
2020-09-20 06:00 9.02 321000 853000 (2018) 213000 (2017) 486000 213000 259000 440000 760000 853000
2020-09-20 05:00 9.00 320000 853000 (2018) 213000 (2017) 486000 213000 259000 440000 760000 853000
2020-09-20 04:00 9.01 320000 853000 (2018) 213000 (2017) 486000 213000 259000 440000 760000 853000
2020-09-20 03:00 9.03 321000 853000 (2018) 213000 (2017) 486000 213000 259000 440000 760000 853000
2020-09-20 02:00 9.05 321000 853000 (2018) 213000 (2017) 486000 213000 259000 440000 760000 853000
2020-09-20 01:00 9.08 322000 853000 (2018) 213000 (2017) 486000 213000 259000 440000 760000 853000
2020-09-20 00:00 9.13 323000 853000 (2018) 213000 (2017) 486000 213000 259000 440000 760000 853000
2020-09-19 23:00 9.17 324000 879000 (2018) 205000 (2017) 482000 205000 253000 422000 771000 879000
2020-09-19 22:00 9.26 325000 879000 (2018) 205000 (2017) 482000 205000 253000 422000 771000 879000
2020-09-19 21:00 9.35 327000 879000 (2018) 205000 (2017) 482000 205000 253000 422000 771000 879000
2020-09-19 20:00 9.44 329000 879000 (2018) 205000 (2017) 482000 205000 253000 422000 771000 879000
2020-09-19 19:00 9.54 331000 879000 (2018) 205000 (2017) 482000 205000 253000 422000 771000 879000
2020-09-19 18:00 9.61 333000 879000 (2018) 205000 (2017) 482000 205000 253000 422000 771000 879000
2020-09-19 17:00 9.59 332000 879000 (2018) 205000 (2017) 482000 205000 253000 422000 771000 879000
2020-09-19 16:00 9.80 336000 879000 (2018) 205000 (2017) 482000 205000 253000 422000 771000 879000
2020-09-19 15:00 9.64 333000 879000 (2018) 205000 (2017) 482000 205000 253000 422000 771000 879000
2020-09-19 14:00 10.02 341000 879000 (2018) 205000 (2017) 482000 205000 253000 422000 771000 879000
2020-09-19 13:00 10.05 342000 879000 (2018) 205000 (2017) 482000 205000 253000 422000 771000 879000
2020-09-19 12:00 10.26 346000 879000 (2018) 205000 (2017) 482000 205000 253000 422000 771000 879000
2020-09-19 11:00 10.24 345000 879000 (2018) 205000 (2017) 482000 205000 253000 422000 771000 879000
2020-09-19 10:00 10.32 347000 879000 (2018) 205000 (2017) 482000 205000 253000 422000 771000 879000
2020-09-19 09:00 10.55 352000 879000 (2018) 205000 (2017) 482000 205000 253000 422000 771000 879000
2020-09-19 08:00 10.70 355000 879000 (2018) 205000 (2017) 482000 205000 253000 422000 771000 879000
2020-09-19 07:00 10.78 357000 879000 (2018) 205000 (2017) 482000 205000 253000 422000 771000 879000
2020-09-19 06:00 10.90 359000 879000 (2018) 205000 (2017) 482000 205000 253000 422000 771000 879000
2020-09-19 05:00 11.02 362000 879000 (2018) 205000 (2017) 482000 205000 253000 422000 771000 879000
2020-09-19 04:00 11.07 363000 879000 (2018) 205000 (2017) 482000 205000 253000 422000 771000 879000
2020-09-19 03:00 11.15 365000 879000 (2018) 205000 (2017) 482000 205000 253000 422000 771000 879000
2020-09-19 02:00 11.25 367000 879000 (2018) 205000 (2017) 482000 205000 253000 422000 771000 879000
2020-09-19 01:00 11.32 368000 879000 (2018) 205000 (2017) 482000 205000 253000 422000 771000 879000
2020-09-19 00:00 11.37 369000 879000 (2018) 205000 (2017) 482000 205000 253000 422000 771000 879000
2020-09-18 23:00 11.42 370000 885000 (2018) 203000 (2017) 472000 203000 248000 400000 767000 885000
2020-09-18 22:00 11.49 372000 885000 (2018) 203000 (2017) 472000 203000 248000 400000 767000 885000
2020-09-18 21:00 11.54 373000 885000 (2018) 203000 (2017) 472000 203000 248000 400000 767000 885000
2020-09-18 20:00 11.58 374000 885000 (2018) 203000 (2017) 472000 203000 248000 400000 767000 885000
2020-09-18 19:00 11.62 375000 885000 (2018) 203000 (2017) 472000 203000 248000 400000 767000 885000
2020-09-18 18:00 11.65 375000 885000 (2018) 203000 (2017) 472000 203000 248000 400000 767000 885000
2020-09-18 17:00 11.59 374000 885000 (2018) 203000 (2017) 472000 203000 248000 400000 767000 885000
2020-09-18 16:00 11.63 375000 885000 (2018) 203000 (2017) 472000 203000 248000 400000 767000 885000
2020-09-18 15:00 11.63 375000 885000 (2018) 203000 (2017) 472000 203000 248000 400000 767000 885000
2020-09-18 14:00 11.53 373000 885000 (2018) 203000 (2017) 472000 203000 248000 400000 767000 885000
2020-09-18 13:00 11.71 377000 885000 (2018) 203000 (2017) 472000 203000 248000 400000 767000 885000
2020-09-18 12:00 11.63 375000 885000 (2018) 203000 (2017) 472000 203000 248000 400000 767000 885000
2020-09-18 11:00 11.80 378000 885000 (2018) 203000 (2017) 472000 203000 248000 400000 767000 885000
2020-09-18 10:00 11.83 379000 885000 (2018) 203000 (2017) 472000 203000 248000 400000 767000 885000
2020-09-18 09:00 11.88 380000 885000 (2018) 203000 (2017) 472000 203000 248000 400000 767000 885000
2020-09-18 08:00 11.89 380000 885000 (2018) 203000 (2017) 472000 203000 248000 400000 767000 885000
2020-09-18 07:00 11.94 381000 885000 (2018) 203000 (2017) 472000 203000 248000 400000 767000 885000
2020-09-18 06:00 11.94 381000 885000 (2018) 203000 (2017) 472000 203000 248000 400000 767000 885000
2020-09-18 05:00 11.95 382000 885000 (2018) 203000 (2017) 472000 203000 248000 400000 767000 885000
2020-09-18 04:00 11.94 381000 885000 (2018) 203000 (2017) 472000 203000 248000 400000 767000 885000
2020-09-18 03:00 11.92 381000 885000 (2018) 203000 (2017) 472000 203000 248000 400000 767000 885000
2020-09-18 02:00 11.93 381000 885000 (2018) 203000 (2017) 472000 203000 248000 400000 767000 885000
2020-09-18 01:00 11.91 381000 885000 (2018) 203000 (2017) 472000 203000 248000 400000 767000 885000
2020-09-18 00:00 11.89 380000 885000 (2018) 203000 (2017) 472000 203000 248000 400000 767000 885000
2020-09-17 23:00 11.87 380000 884000 (2018) 229000 (2017) 477000 229000 266000 398000 767000 884000
2020-09-17 22:00 11.86 380000 884000 (2018) 229000 (2017) 477000 229000 266000 398000 767000 884000
2020-09-17 21:00 11.85 380000 884000 (2018) 229000 (2017) 477000 229000 266000 398000 767000 884000
2020-09-17 20:00 11.84 379000 884000 (2018) 229000 (2017) 477000 229000 266000 398000 767000 884000
2020-09-17 19:00 11.81 379000 884000 (2018) 229000 (2017) 477000 229000 266000 398000 767000 884000
2020-09-17 18:00 11.78 378000 884000 (2018) 229000 (2017) 477000 229000 266000 398000 767000 884000
2020-09-17 17:00 11.74 377000 884000 (2018) 229000 (2017) 477000 229000 266000 398000 767000 884000
2020-09-17 16:00 11.69 376000 884000 (2018) 229000 (2017) 477000 229000 266000 398000 767000 884000
2020-09-17 15:00 11.62 375000 884000 (2018) 229000 (2017) 477000 229000 266000 398000 767000 884000
2020-09-17 14:00 11.51 372000 884000 (2018) 229000 (2017) 477000 229000 266000 398000 767000 884000
2020-09-17 13:00 11.53 373000 884000 (2018) 229000 (2017) 477000 229000 266000 398000 767000 884000
2020-09-17 12:00 11.41 370000 884000 (2018) 229000 (2017) 477000 229000 266000 398000 767000 884000
2020-09-17 11:00 11.42 370000 884000 (2018) 229000 (2017) 477000 229000 266000 398000 767000 884000
2020-09-17 10:00 11.38 369000 884000 (2018) 229000 (2017) 477000 229000 266000 398000 767000 884000
2020-09-17 09:00 11.36 369000 884000 (2018) 229000 (2017) 477000 229000 266000 398000 767000 884000
2020-09-17 08:00 11.32 368000 884000 (2018) 229000 (2017) 477000 229000 266000 398000 767000 884000
2020-09-17 07:00 11.27 367000 884000 (2018) 229000 (2017) 477000 229000 266000 398000 767000 884000
2020-09-17 06:00 11.23 366000 884000 (2018) 229000 (2017) 477000 229000 266000 398000 767000 884000
2020-09-17 05:00 11.13 364000 884000 (2018) 229000 (2017) 477000 229000 266000 398000 767000 884000
2020-09-17 04:00 11.11 364000 884000 (2018) 229000 (2017) 477000 229000 266000 398000 767000 884000
2020-09-17 03:00 11.02 362000 884000 (2018) 229000 (2017) 477000 229000 266000 398000 767000 884000
2020-09-17 02:00 10.95 360000 884000 (2018) 229000 (2017) 477000 229000 266000 398000 767000 884000
2020-09-17 01:00 10.89 359000 884000 (2018) 229000 (2017) 477000 229000 266000 398000 767000 884000
2020-09-17 00:00 10.83 358000 884000 (2018) 229000 (2017) 477000 229000 266000 398000 767000 884000
2020-09-16 23:00 10.73 356000 878000 (2018) 255000 (2017) 479000 255000 281000 392000 764000 878000
2020-09-16 22:00 10.69 355000 878000 (2018) 255000 (2017) 479000 255000 281000 392000 764000 878000
2020-09-16 21:00 10.60 353000 878000 (2018) 255000 (2017) 479000 255000 281000 392000 764000 878000
2020-09-16 20:00 10.52 351000 878000 (2018) 255000 (2017) 479000 255000 281000 392000 764000 878000
2020-09-16 19:00 10.43 349000 878000 (2018) 255000 (2017) 479000 255000 281000 392000 764000 878000
2020-09-16 18:00 10.36 348000 878000 (2018) 255000 (2017) 479000 255000 281000 392000 764000 878000
2020-09-16 17:00 10.26 346000 878000 (2018) 255000 (2017) 479000 255000 281000 392000 764000 878000
2020-09-16 16:00 10.07 342000 878000 (2018) 255000 (2017) 479000 255000 281000 392000 764000 878000
2020-09-16 15:00 9.58 332000 878000 (2018) 255000 (2017) 479000 255000 281000 392000 764000 878000
2020-09-16 14:00 9.75 335000 878000 (2018) 255000 (2017) 479000 255000 281000 392000 764000 878000
2020-09-16 13:00 9.94 339000 878000 (2018) 255000 (2017) 479000 255000 281000 392000 764000 878000
2020-09-16 12:00 9.86 338000 878000 (2018) 255000 (2017) 479000 255000 281000 392000 764000 878000
2020-09-16 11:00 9.80 336000 878000 (2018) 255000 (2017) 479000 255000 281000 392000 764000 878000
2020-09-16 10:00 9.72 335000 878000 (2018) 255000 (2017) 479000 255000 281000 392000 764000 878000
2020-09-16 09:00 9.64 333000 878000 (2018) 255000 (2017) 479000 255000 281000 392000 764000 878000
2020-09-16 08:00 9.42 329000 878000 (2018) 255000 (2017) 479000 255000 281000 392000 764000 878000
2020-09-16 07:00 9.48 330000 878000 (2018) 255000 (2017) 479000 255000 281000 392000 764000 878000
2020-09-16 06:00 9.38 328000 878000 (2018) 255000 (2017) 479000 255000 281000 392000 764000 878000
2020-09-16 05:00 9.28 326000 878000 (2018) 255000 (2017) 479000 255000 281000 392000 764000 878000
2020-09-16 04:00 9.20 324000 878000 (2018) 255000 (2017) 479000 255000 281000 392000 764000 878000
2020-09-16 03:00 9.09 322000 878000 (2018) 255000 (2017) 479000 255000 281000 392000 764000 878000
2020-09-16 02:00 9.01 320000 878000 (2018) 255000 (2017) 479000 255000 281000 392000 764000 878000
2020-09-16 01:00 8.92 319000 878000 (2018) 255000 (2017) 479000 255000 281000 392000 764000 878000
2020-09-16 00:00 8.82 317000 878000 (2018) 255000 (2017) 479000 255000 281000 392000 764000 878000

A total of 170 rows are displayed for years 2016 through 2019.